Time;durP1;ratioP1;P1;durP2;ratioP2;P2;SDS_P1;SDS_P2;PMS_P1;PMS_P2;Temp;Humidity;BMP_temperature;BMP_pressure;BME280_temperature;BME280_humidity;BME280_pressure;Samples;Min_cycle;Max_cycle;Signal;HPM_P1;HPM_P2
2022/01/14 00:01:44;;;;;;;131.63;51.67;;;-0.70;99.90;;;;;;4996376;28;20042;-79
2022/01/14 00:04:10;;;;;;;166.68;54.90;;;-0.80;99.90;;;;;;4999181;28;20050;-79
2022/01/14 00:06:40;;;;;;;171.77;53.92;;;-0.80;99.90;;;;;;5000575;28;20137;-78
2022/01/14 00:09:09;;;;;;;141.68;53.33;;;-0.90;99.90;;;;;;4998864;28;20061;-78
2022/01/14 00:11:47;;;;;;;139.95;51.65;;;-0.80;99.90;;;;;;4997514;28;20053;-78
2022/01/14 00:16:40;;;;;;;168.85;53.47;;;-0.80;99.90;;;;;;5001340;28;20037;-78
2022/01/14 00:19:07;;;;;;;177.73;55.25;;;-0.80;99.90;;;;;;4983031;28;20399;-79
2022/01/14 00:21:35;;;;;;;225.95;57.35;;;-0.80;99.90;;;;;;4998970;28;20034;-78
2022/01/14 00:32:49;;;;;;;154.43;53.67;;;-0.80;99.90;;;;;;5003934;28;20041;-79
2022/01/14 00:34:56;;;;;;;136.93;47.47;;;-0.80;99.90;;;;;;4997577;28;20050;-78
2022/01/14 00:37:22;;;;;;;146.45;51.30;;;-0.90;99.90;;;;;;4999744;28;20031;-78
2022/01/14 00:39:49;;;;;;;137.95;49.35;;;-0.90;99.90;;;;;;4999825;28;20387;-78
2022/01/14 00:42:15;;;;;;;129.57;48.88;;;-0.80;99.90;;;;;;4998891;28;20030;-78
2022/01/14 00:44:42;;;;;;;186.93;54.08;;;-0.80;99.90;;;;;;4999556;28;20026;-78
2022/01/14 00:47:08;;;;;;;233.95;56.30;;;-0.90;99.90;;;;;;5001180;28;20030;-78
2022/01/14 00:49:34;;;;;;;243.07;57.80;;;-1.00;99.90;;;;;;5000095;28;20034;-78
2022/01/14 00:52:00;;;;;;;175.07;49.30;;;-1.00;99.90;;;;;;5000297;28;20038;-78
2022/01/14 00:54:27;;;;;;;190.50;50.78;;;-1.00;99.90;;;;;;4999997;28;20460;-78
2022/01/14 00:59:34;;;;;;;;;;;-1.00;99.90;;;;;;4998684;28;20046;-78
2022/01/14 01:02:01;;;;;;;114.97;39.03;;;-1.00;99.90;;;;;;4999795;28;19932;-78
2022/01/14 01:04:32;;;;;;;112.25;40.38;;;-1.10;99.90;;;;;;4999669;28;20498;-78
2022/01/14 01:07:07;;;;;;;219.18;53.38;;;-1.10;99.90;;;;;;5000405;28;20030;-78
2022/01/14 01:09:36;;;;;;;149.25;47.78;;;-1.10;99.90;;;;;;5005987;28;20034;-78
2022/01/14 01:12:28;;;;;;;105.38;41.30;;;-1.10;99.90;;;;;;4996802;28;20062;-79
2022/01/14 01:15:06;;;;;;;142.57;39.67;;;-1.10;99.90;;;;;;4998213;28;20038;-78
2022/01/14 01:17:33;;;;;;;113.82;40.28;;;-1.10;99.90;;;;;;4980811;28;20472;-78
2022/01/14 01:20:01;;;;;;;176.55;46.33;;;-1.10;99.90;;;;;;4999370;28;20039;-79
2022/01/14 01:22:27;;;;;;;180.15;47.63;;;-1.10;99.90;;;;;;4997718;28;20034;-79
2022/01/14 01:25:07;;;;;;;193.43;45.53;;;-1.10;99.90;;;;;;4980180;28;20044;-78
2022/01/14 01:27:38;;;;;;;166.35;44.20;;;-1.20;99.90;;;;;;4995656;28;20034;-78
2022/01/14 01:30:14;;;;;;;152.75;43.80;;;-1.20;99.90;;;;;;4996121;28;20391;-79
2022/01/14 01:32:45;;;;;;;161.25;47.10;;;-1.20;99.90;;;;;;4996290;28;20043;-78
2022/01/14 01:35:11;;;;;;;127.18;40.35;;;-1.10;99.90;;;;;;4995900;28;20049;-77
2022/01/14 01:37:37;;;;;;;105.22;38.42;;;-1.20;99.90;;;;;;4996249;28;20038;-78
2022/01/14 01:40:04;;;;;;;98.32;37.30;;;-1.10;99.90;;;;;;4996384;28;20045;-78
2022/01/14 01:42:32;;;;;;;83.07;38.83;;;-1.10;99.90;;;;;;4998704;28;20030;-79
2022/01/14 01:45:01;;;;;;;216.73;49.10;;;-1.20;99.90;;;;;;5002480;28;20045;-78
2022/01/14 01:47:28;;;;;;;78.72;38.47;;;-1.10;99.90;;;;;;4994061;28;20400;-78
2022/01/14 01:49:54;;;;;;;99.95;36.40;;;-1.20;99.90;;;;;;4993814;28;20042;-78
2022/01/14 01:52:20;;;;;;;130.23;42.95;;;-1.10;99.90;;;;;;4992987;28;20460;-78
2022/01/14 01:54:46;;;;;;;127.05;46.03;;;-1.00;99.90;;;;;;4993168;28;20045;-79
2022/01/14 01:57:13;;;;;;;119.93;45.03;;;-1.00;99.90;;;;;;4993588;28;20037;-79
2022/01/14 01:59:39;;;;;;;142.98;42.75;;;-1.10;99.90;;;;;;4992931;28;20376;-79
2022/01/14 02:02:05;;;;;;;105.45;39.83;;;-1.20;99.90;;;;;;4992560;28;20045;-79
2022/01/14 02:04:31;;;;;;;117.45;39.10;;;-1.10;99.90;;;;;;4992361;28;20423;-79
2022/01/14 02:06:59;;;;;;;127.63;40.05;;;-1.10;99.90;;;;;;4993208;28;20034;-78
2022/01/14 02:09:25;;;;;;;75.78;33.35;;;-1.10;99.90;;;;;;4991266;28;20049;-78
2022/01/14 02:11:51;;;;;;;104.30;39.47;;;-1.10;99.90;;;;;;4993298;28;20396;-78
2022/01/14 02:17:33;;;;;;;136.25;43.33;;;-1.10;99.90;;;;;;4974394;28;20062;-79
2022/01/14 02:23:01;;;;;;;75.57;40.90;;;-1.20;99.90;;;;;;4993537;28;20031;-79
2022/01/14 02:25:29;;;;;;;156.75;45.08;;;-1.20;99.90;;;;;;4993312;28;20387;-79
2022/01/14 02:28:02;;;;;;;173.30;46.72;;;-1.10;99.90;;;;;;4993473;28;20035;-78
2022/01/14 02:30:30;;;;;;;130.15;42.95;;;-1.20;99.90;;;;;;4992411;28;20042;-78
2022/01/14 02:32:56;;;;;;;197.05;44.95;;;-1.20;99.90;;;;;;4992942;28;20046;-79
2022/01/14 02:35:23;;;;;;;136.02;41.40;;;-1.20;99.90;;;;;;4991259;28;20045;-78
2022/01/14 02:37:49;;;;;;;164.63;44.92;;;-1.20;99.90;;;;;;4992887;28;20034;-79
2022/01/14 02:40:18;;;;;;;109.93;42.25;;;-1.20;99.90;;;;;;4993552;28;20041;-78
2022/01/14 02:42:47;;;;;;;110.80;41.97;;;-1.20;99.90;;;;;;4992558;28;20033;-79
2022/01/14 02:45:14;;;;;;;130.32;45.05;;;-1.20;99.90;;;;;;4993153;28;20047;-79
2022/01/14 02:47:40;;;;;;;103.65;42.30;;;-1.10;99.90;;;;;;4994729;28;20333;-79
2022/01/14 02:50:09;;;;;;;98.28;40.28;;;-1.10;99.90;;;;;;4997751;28;20038;-78
2022/01/14 02:52:54;;;;;;;112.15;40.80;;;-1.10;99.90;;;;;;4995212;28;20495;-79
2022/01/14 02:55:26;;;;;;;121.22;46.90;;;-1.10;99.90;;;;;;4991588;28;20034;-79
2022/01/14 02:57:54;;;;;;;136.52;46.65;;;-1.10;99.90;;;;;;4993240;28;20472;-79
2022/01/14 03:00:29;;;;;;;134.40;45.28;;;-1.00;99.90;;;;;;4992691;28;20369;-78
2022/01/14 03:02:59;;;;;;;157.43;44.67;;;-1.10;99.90;;;;;;4992523;28;20030;-79
2022/01/14 03:05:27;;;;;;;163.00;47.70;;;-1.20;99.90;;;;;;4991809;28;20038;-79
2022/01/14 03:07:54;;;;;;;159.70;45.90;;;-1.20;99.90;;;;;;4992821;28;20057;-79
2022/01/14 03:10:20;;;;;;;190.35;49.50;;;-1.30;99.90;;;;;;4992521;28;20085;-79
2022/01/14 03:12:47;;;;;;;198.20;52.78;;;-1.20;99.90;;;;;;4992840;28;20050;-79
2022/01/14 03:15:14;;;;;;;160.40;51.88;;;-1.10;99.90;;;;;;4995688;28;20043;-79
2022/01/14 03:17:41;;;;;;;247.68;56.05;;;-1.10;99.90;;;;;;4995529;28;20027;-79
2022/01/14 03:20:11;;;;;;;201.82;53.10;;;-1.10;99.90;;;;;;4995674;28;20042;-79
2022/01/14 03:22:41;;;;;;;192.77;56.15;;;-1.10;99.90;;;;;;4995377;28;20031;-79
2022/01/14 03:27:53;;;;;;;163.20;53.85;;;-1.10;99.90;;;;;;4996262;28;20042;-78
2022/01/14 03:30:19;;;;;;;188.30;55.08;;;-1.10;99.90;;;;;;4994061;28;20048;-79
2022/01/14 03:32:46;;;;;;;154.07;54.20;;;-1.20;99.90;;;;;;4995101;28;20041;-79
2022/01/14 03:35:13;;;;;;;218.57;59.67;;;-1.10;99.90;;;;;;4995563;28;20149;-79
2022/01/14 03:37:40;;;;;;;213.70;56.90;;;-1.00;99.90;;;;;;4995100;28;20030;-78
2022/01/14 03:40:07;;;;;;;219.52;58.38;;;-1.00;99.90;;;;;;4995566;28;20468;-79
2022/01/14 03:42:34;;;;;;;188.98;55.50;;;-1.00;99.90;;;;;;4994722;28;20472;-78
2022/01/14 03:45:00;;;;;;;192.48;57.08;;;-1.20;99.90;;;;;;4995532;28;20038;-79
2022/01/14 03:47:26;;;;;;;221.98;55.97;;;-1.20;99.90;;;;;;4994961;28;20041;-79
2022/01/14 03:49:52;;;;;;;217.23;61.30;;;-1.10;99.90;;;;;;4995566;28;20035;-80
2022/01/14 03:52:19;;;;;;;225.02;56.97;;;-1.10;99.90;;;;;;4993811;28;20046;-80
2022/01/14 03:54:45;;;;;;;191.63;54.83;;;-1.10;99.90;;;;;;4994872;28;20034;-79
2022/01/14 03:57:11;;;;;;;208.70;60.03;;;-1.10;99.90;;;;;;4995350;28;20034;-79
2022/01/14 03:59:37;;;;;;;189.65;54.80;;;-1.10;99.90;;;;;;4994824;28;20038;-79
2022/01/14 04:02:04;;;;;;;168.35;54.28;;;-1.10;99.90;;;;;;4995307;28;20031;-79
2022/01/14 04:04:30;;;;;;;203.18;57.15;;;-1.10;99.90;;;;;;4995828;28;20034;-77
2022/01/14 04:06:56;;;;;;;159.07;52.58;;;-1.10;99.90;;;;;;5006987;28;20052;-79
2022/01/14 04:09:22;;;;;;;184.68;55.83;;;-1.10;99.90;;;;;;5008906;28;20037;-78
2022/01/14 04:11:49;;;;;;;181.93;55.75;;;-1.10;99.90;;;;;;5008580;28;20030;-79
2022/01/14 04:16:47;;;;;;;146.43;52.75;;;-1.00;99.90;;;;;;4994949;28;20038;-78
2022/01/14 04:19:13;;;;;;;155.75;54.38;;;-1.10;99.90;;;;;;4995327;28;20361;-79
2022/01/14 04:21:39;;;;;;;150.82;55.92;;;-1.10;99.90;;;;;;4994363;28;20031;-78
2022/01/14 04:24:06;;;;;;;127.60;50.13;;;-1.10;99.90;;;;;;4994202;28;20051;-78
2022/01/14 04:26:32;;;;;;;200.20;59.40;;;-1.00;99.90;;;;;;4993414;28;20041;-78
2022/01/14 04:28:58;;;;;;;160.10;54.08;;;-1.00;99.90;;;;;;4995025;28;20039;-78
2022/01/14 04:31:24;;;;;;;144.63;48.03;;;-1.10;99.90;;;;;;4994370;28;20038;-78
2022/01/14 04:33:51;;;;;;;188.57;55.33;;;-1.10;99.90;;;;;;4993924;28;20046;-78
2022/01/14 04:36:17;;;;;;;206.02;55.92;;;-1.10;99.90;;;;;;4994577;28;20041;-78
2022/01/14 04:38:43;;;;;;;147.50;49.90;;;-1.10;99.90;;;;;;4994079;28;20388;-78
2022/01/14 04:41:09;;;;;;;139.85;48.78;;;-1.20;99.90;;;;;;4994988;28;20042;-78
2022/01/14 04:43:36;;;;;;;198.05;56.28;;;-1.20;99.90;;;;;;4994059;28;20026;-78
2022/01/14 04:46:35;;;;;;;192.93;56.03;;;-1.20;99.90;;;;;;4992702;28;20472;-79
2022/01/14 04:48:49;;;;;;;183.10;54.10;;;-1.20;99.90;;;;;;4993875;28;20042;-78
2022/01/14 04:51:15;;;;;;;168.88;50.45;;;-1.20;99.90;;;;;;4976851;28;20049;-78
2022/01/14 04:53:43;;;;;;;141.15;48.85;;;-1.20;99.90;;;;;;4993890;28;20046;-78
2022/01/14 04:56:12;;;;;;;152.30;52.05;;;-1.20;99.90;;;;;;4993048;28;20045;-79
2022/01/14 04:58:38;;;;;;;184.77;55.17;;;-1.10;99.90;;;;;;4993871;28;20038;-78
2022/01/14 05:01:05;;;;;;;132.32;49.45;;;-1.10;99.90;;;;;;4994213;28;20476;-79
2022/01/14 05:03:31;;;;;;;173.20;55.60;;;-1.10;99.90;;;;;;4993447;28;20041;-78
2022/01/14 05:06:00;;;;;;;166.20;57.50;;;-1.10;99.90;;;;;;4994368;28;20053;-79
2022/01/14 05:08:35;;;;;;;141.85;50.47;;;-1.10;99.90;;;;;;4994014;28;20034;-79
2022/01/14 05:13:43;;;;;;;169.88;54.35;;;-1.10;99.90;;;;;;4993718;28;20047;-79
2022/01/14 05:16:10;;;;;;;167.52;56.03;;;-1.10;99.90;;;;;;4994076;28;20034;-79
2022/01/14 05:18:38;;;;;;;186.05;55.38;;;-1.10;99.90;;;;;;4993810;28;20034;-80
2022/01/14 05:21:05;;;;;;;153.07;56.05;;;-1.10;99.90;;;;;;4994321;28;20391;-79
2022/01/14 05:23:31;;;;;;;184.63;55.42;;;-1.10;99.90;;;;;;4993378;28;20054;-78
2022/01/14 05:25:57;;;;;;;184.88;55.97;;;-1.00;99.90;;;;;;4998507;28;20037;-80
2022/01/14 05:28:23;;;;;;;165.98;56.00;;;-1.10;99.90;;;;;;4994911;28;20049;-79
2022/01/14 05:30:50;;;;;;;141.15;57.53;;;-1.10;99.90;;;;;;4993354;28;20329;-80
2022/01/14 05:33:16;;;;;;;189.88;60.10;;;-1.10;99.90;;;;;;4992511;28;20484;-79
2022/01/14 05:35:43;;;;;;;237.68;114.38;;;-1.10;99.90;;;;;;4992874;28;20046;-79
2022/01/14 05:38:09;;;;;;;195.55;68.18;;;-1.00;99.90;;;;;;4993782;28;20037;-80
2022/01/14 05:40:35;;;;;;;225.85;60.38;;;-1.00;99.90;;;;;;4992810;28;20034;-79
2022/01/14 05:43:02;;;;;;;234.95;63.85;;;-1.00;99.90;;;;;;4993862;28;20035;-80
2022/01/14 05:45:28;;;;;;;198.00;61.83;;;-0.90;99.90;;;;;;4993708;28;20038;-80
2022/01/14 05:47:55;;;;;;;208.77;63.25;;;-0.90;99.90;;;;;;4993234;28;20041;-79
2022/01/14 05:50:24;;;;;;;236.95;69.00;;;-0.90;99.90;;;;;;4994398;28;20030;-80
2022/01/14 05:52:51;;;;;;;226.63;64.32;;;-0.80;99.90;;;;;;4992892;28;20579;-79
2022/01/14 05:55:20;;;;;;;231.88;63.85;;;-0.80;99.90;;;;;;4993348;28;20031;-80
2022/01/14 05:57:47;;;;;;;191.88;57.78;;;-0.80;99.90;;;;;;4992854;28;20038;-80
2022/01/14 06:00:16;;;;;;;170.05;57.97;;;-0.80;99.90;;;;;;4993195;28;20384;-79
2022/01/14 06:02:47;;;;;;;180.07;63.83;;;-0.80;99.90;;;;;;4993700;28;20034;-79
2022/01/14 06:05:14;;;;;;;156.40;58.63;;;-0.80;99.90;;;;;;5015859;28;20033;-79
2022/01/14 06:07:40;;;;;;;184.05;74.00;;;-0.80;99.90;;;;;;5028852;28;20034;-78
2022/01/14 06:10:07;;;;;;;164.05;60.15;;;-0.80;99.90;;;;;;5014768;28;20045;-79
2022/01/14 06:12:33;;;;;;;153.80;54.97;;;-0.90;99.90;;;;;;5012872;28;20041;-80
2022/01/14 06:15:00;;;;;;;154.77;54.35;;;-1.00;99.90;;;;;;5012886;28;20029;-78
2022/01/14 06:17:27;;;;;;;153.88;52.20;;;-1.00;99.90;;;;;;5012718;28;20029;-78
2022/01/14 06:19:53;;;;;;;137.98;51.78;;;-1.00;99.90;;;;;;5012932;28;20041;-79
2022/01/14 06:22:19;;;;;;;125.45;49.20;;;-1.10;99.90;;;;;;5012815;28;20030;-79
2022/01/14 06:24:45;;;;;;;136.68;51.08;;;-1.00;99.90;;;;;;5013190;28;20050;-78
2022/01/14 06:27:12;;;;;;;112.63;49.28;;;-1.10;99.90;;;;;;5012275;28;20053;-79
2022/01/14 06:29:38;;;;;;;114.35;48.30;;;-1.00;99.90;;;;;;5013367;28;20026;-78
2022/01/14 06:32:04;;;;;;;116.93;49.03;;;-1.10;99.90;;;;;;5013638;28;20038;-80
2022/01/14 06:34:30;;;;;;;113.32;50.95;;;-1.00;99.90;;;;;;5005151;28;20045;-78
2022/01/14 06:36:57;;;;;;;157.63;49.20;;;-1.10;99.90;;;;;;5004725;28;20042;-78
2022/01/14 06:39:23;;;;;;;124.15;49.97;;;-1.00;99.90;;;;;;4998281;28;20039;-78
2022/01/14 06:41:49;;;;;;;115.28;49.03;;;-1.00;99.90;;;;;;4992146;28;20038;-79
2022/01/14 06:44:15;;;;;;;133.60;51.15;;;-1.10;99.90;;;;;;4993229;28;20518;-79
2022/01/14 06:46:42;;;;;;;123.50;48.70;;;-1.00;99.90;;;;;;4992746;28;20045;-79
2022/01/14 06:49:08;;;;;;;113.95;48.28;;;-1.00;99.90;;;;;;4994876;28;20038;-80
2022/01/14 06:51:34;;;;;;;123.03;52.08;;;-1.00;99.90;;;;;;4995537;28;20049;-81
2022/01/14 06:54:01;;;;;;;128.70;52.25;;;-1.00;99.90;;;;;;4996687;28;20045;-79
2022/01/14 06:56:27;;;;;;;99.82;50.08;;;-1.10;99.90;;;;;;4997018;28;20045;-78
2022/01/14 06:58:53;;;;;;;141.20;49.92;;;-1.00;99.90;;;;;;4996689;28;20468;-79
2022/01/14 07:01:19;;;;;;;129.13;48.80;;;-1.00;99.90;;;;;;4997027;28;20038;-78
2022/01/14 07:03:45;;;;;;;122.80;53.35;;;-1.00;99.90;;;;;;4996124;28;20034;-78
2022/01/14 07:06:11;;;;;;;129.15;52.50;;;-0.90;99.90;;;;;;4996629;28;20031;-78
2022/01/14 07:08:40;;;;;;;119.65;52.63;;;-0.90;99.90;;;;;;4995692;28;20039;-79
2022/01/14 07:11:07;;;;;;;114.53;54.63;;;-0.90;99.90;;;;;;4996757;28;20037;-79
2022/01/14 07:13:33;;;;;;;127.07;56.85;;;-0.90;99.90;;;;;;4996563;28;20030;-79
2022/01/14 07:15:59;;;;;;;138.98;62.40;;;-0.90;99.90;;;;;;4995627;28;20030;-78
2022/01/14 07:18:25;;;;;;;155.02;61.17;;;-0.90;99.90;;;;;;4996284;28;20049;-79
2022/01/14 07:20:52;;;;;;;167.00;62.55;;;-0.90;99.90;;;;;;4994868;28;20038;-78
2022/01/14 07:23:18;;;;;;;135.73;58.47;;;-0.90;99.90;;;;;;4996024;28;20035;-78
2022/01/14 07:25:44;;;;;;;165.90;64.20;;;-0.90;99.90;;;;;;4995284;28;20030;-79
2022/01/14 07:28:10;;;;;;;176.68;62.60;;;-1.00;99.90;;;;;;4995920;28;20456;-77
2022/01/14 07:30:36;;;;;;;165.18;62.67;;;-1.00;99.90;;;;;;4995637;28;20057;-76
2022/01/14 07:33:03;;;;;;;140.02;61.53;;;-0.90;99.90;;;;;;4996288;28;20050;-78
2022/01/14 07:35:29;;;;;;;153.50;62.75;;;-0.90;99.90;;;;;;4994419;28;20035;-79
2022/01/14 07:37:55;;;;;;;148.77;74.18;;;-0.90;99.90;;;;;;4995525;28;20038;-78
2022/01/14 07:40:21;;;;;;;177.55;62.78;;;-0.90;99.90;;;;;;4996109;28;20372;-79
2022/01/14 07:42:48;;;;;;;164.82;61.35;;;-1.00;99.90;;;;;;4995611;28;20042;-79
2022/01/14 07:45:14;;;;;;;223.70;158.48;;;-1.00;99.90;;;;;;4996152;28;20379;-80
2022/01/14 07:47:40;;;;;;;141.65;65.10;;;-1.00;99.90;;;;;;4995057;28;20037;-80
2022/01/14 07:50:07;;;;;;;138.52;64.30;;;-1.00;99.90;;;;;;4995213;28;20041;-79
2022/01/14 07:52:33;;;;;;;197.88;64.28;;;-1.00;99.90;;;;;;4995794;28;20460;-79
2022/01/14 07:54:59;;;;;;;189.73;66.30;;;-1.00;99.90;;;;;;4994772;28;20034;-79
2022/01/14 07:57:26;;;;;;;207.95;65.57;;;-1.10;99.90;;;;;;4995382;28;20034;-79
2022/01/14 07:59:52;;;;;;;211.52;63.53;;;-1.10;99.90;;;;;;4995267;28;20030;-79
2022/01/14 08:02:20;;;;;;;145.82;58.90;;;-1.10;99.90;;;;;;4996254;28;20034;-79
2022/01/14 08:04:48;;;;;;;158.05;59.83;;;-1.10;99.90;;;;;;4994718;28;20046;-79
2022/01/14 08:07:17;;;;;;;141.63;59.20;;;-1.20;99.90;;;;;;4995514;28;20038;-79
2022/01/14 08:09:43;;;;;;;120.43;57.65;;;-1.20;99.90;;;;;;4997993;28;20041;-80
2022/01/14 08:12:12;;;;;;;164.07;58.17;;;-1.10;99.90;;;;;;4995602;28;20041;-79
2022/01/14 08:14:39;;;;;;;128.98;54.08;;;-1.00;99.90;;;;;;4995703;28;20034;-80
2022/01/14 08:17:06;;;;;;;146.00;61.88;;;-1.00;99.90;;;;;;4995276;28;20034;-79
2022/01/14 08:19:33;;;;;;;108.80;53.72;;;-1.00;99.90;;;;;;4995103;28;20034;-78
2022/01/14 08:22:04;;;;;;;120.85;56.78;;;-1.00;99.90;;;;;;4994527;28;20046;-79
2022/01/14 08:24:32;;;;;;;;;;;-1.00;99.90;;;;;;4995992;28;20047;-80
2022/01/14 08:26:59;;;;;;;147.40;54.25;;;-1.00;99.90;;;;;;4994671;28;19910;-79
2022/01/14 08:29:28;;;;;;;102.43;51.13;;;-1.10;99.90;;;;;;4993680;28;20053;-79
2022/01/14 08:31:55;;;;;;;113.15;52.50;;;-1.10;99.90;;;;;;4994421;28;20042;-79
2022/01/14 08:34:22;;;;;;;111.20;51.97;;;-1.10;99.90;;;;;;4993993;28;20058;-79
2022/01/14 08:36:48;;;;;;;106.63;46.30;;;-1.10;99.90;;;;;;4994401;28;20041;-79
2022/01/14 08:39:15;;;;;;;89.10;47.50;;;-1.10;99.90;;;;;;4994515;28;20046;-78
2022/01/14 08:41:41;;;;;;;118.72;51.50;;;-1.10;99.90;;;;;;4994425;28;20383;-82
2022/01/14 08:44:08;;;;;;;116.57;50.90;;;-1.20;99.90;;;;;;4993258;28;20050;-79
2022/01/14 08:46:34;;;;;;;93.55;48.10;;;-1.20;99.90;;;;;;4994525;28;20393;-79
2022/01/14 08:49:01;;;;;;;101.68;50.13;;;-1.20;99.90;;;;;;4994060;28;20041;-79
2022/01/14 08:51:29;;;;;;;103.85;47.15;;;-1.30;99.90;;;;;;4994459;28;20396;-79
2022/01/14 08:53:57;;;;;;;88.75;48.10;;;-1.30;99.90;;;;;;4993850;28;20388;-80
2022/01/14 08:56:24;;;;;;;96.10;43.90;;;-1.30;99.90;;;;;;4994464;28;20026;-79
2022/01/14 08:58:50;;;;;;;73.75;44.97;;;-1.30;99.90;;;;;;4993792;28;20081;-80
2022/01/14 09:01:17;;;;;;;92.97;45.40;;;-1.30;99.90;;;;;;4994610;28;20046;-80
2022/01/14 09:03:43;;;;;;;122.22;48.03;;;-1.20;99.90;;;;;;4993623;28;20041;-81
2022/01/14 09:06:09;;;;;;;123.45;51.83;;;-1.20;99.90;;;;;;4994586;28;20030;-80
2022/01/14 09:08:35;;;;;;;91.85;47.45;;;-1.30;99.90;;;;;;4993372;28;20042;-80
2022/01/14 09:11:02;;;;;;;79.22;46.72;;;-1.30;99.90;;;;;;4993283;28;20036;-80
2022/01/14 09:13:28;;;;;;;97.40;49.78;;;-1.30;99.90;;;;;;4994403;28;20043;-79
2022/01/14 09:15:56;;;;;;;89.53;48.17;;;-1.20;99.90;;;;;;4993851;28;20338;-80
2022/01/14 09:18:22;;;;;;;93.32;50.08;;;-1.20;99.90;;;;;;4994030;28;20038;-80
2022/01/14 09:20:48;;;;;;;82.45;46.95;;;-1.20;99.90;;;;;;4993128;28;20380;-80
2022/01/14 09:23:17;;;;;;;80.72;54.72;;;-1.30;99.90;;;;;;4993699;28;20057;-79
2022/01/14 09:25:44;;;;;;;93.75;54.97;;;-1.10;99.90;;;;;;4993845;28;20049;-83
2022/01/14 09:28:10;;;;;;;81.38;54.05;;;-1.00;99.90;;;;;;4994318;28;20042;-80
2022/01/14 09:30:36;;;;;;;97.75;56.50;;;-0.90;99.90;;;;;;4992359;28;20034;-79
2022/01/14 09:33:02;;;;;;;87.10;50.97;;;-0.80;99.90;;;;;;4993133;28;20041;-79
2022/01/14 09:35:29;;;;;;;75.72;48.33;;;-0.70;99.90;;;;;;4993690;28;20045;-79
2022/01/14 09:37:55;;;;;;;87.47;51.30;;;-0.80;99.90;;;;;;4992372;28;20034;-80
2022/01/14 09:40:21;;;;;;;71.65;50.58;;;-0.80;99.90;;;;;;4993995;28;20034;-79
2022/01/14 09:42:49;;;;;;;86.95;56.33;;;-0.90;99.90;;;;;;4993285;28;20043;-80
2022/01/14 09:45:17;;;;;;;76.97;50.38;;;-0.80;99.90;;;;;;4993792;28;20356;-79
2022/01/14 09:47:47;;;;;;;74.18;51.55;;;-0.80;99.90;;;;;;4993855;28;20033;-79
2022/01/14 09:50:13;;;;;;;71.60;48.35;;;-0.80;99.90;;;;;;4994136;28;20041;-79
2022/01/14 09:52:40;;;;;;;77.65;53.88;;;-0.70;99.90;;;;;;4993841;28;20478;-79
2022/01/14 09:55:06;;;;;;;77.30;54.90;;;-0.70;99.90;;;;;;4993447;28;20042;-80
2022/01/14 09:57:33;;;;;;;95.15;61.72;;;-0.60;99.90;;;;;;4993576;28;20031;-79
2022/01/14 09:59:59;;;;;;;93.82;61.53;;;-0.70;99.90;;;;;;4992832;28;20026;-80
2022/01/14 10:02:38;;;;;;;82.05;54.90;;;-0.90;99.90;;;;;;4993850;28;20038;-80
2022/01/14 10:05:06;;;;;;;77.07;46.70;;;-0.90;99.90;;;;;;4993566;28;20041;-79
2022/01/14 10:07:33;;;;;;;70.82;48.70;;;-1.00;99.90;;;;;;4994457;28;20038;-80
2022/01/14 10:10:21;;;;;;;84.47;62.83;;;-1.10;99.90;;;;;;4997860;28;20031;-79
2022/01/14 10:12:47;;;;;;;69.07;53.85;;;-1.00;99.90;;;;;;4993664;28;20042;-81
2022/01/14 10:15:14;;;;;;;84.38;72.13;;;-1.00;99.90;;;;;;4993308;28;20046;-80
2022/01/14 10:17:42;;;;;;;65.15;53.15;;;-0.90;99.90;;;;;;4993270;28;20030;-79
2022/01/14 10:20:11;;;;;;;69.15;57.35;;;-0.80;99.90;;;;;;4992887;28;20037;-79
2022/01/14 10:22:45;;;;;;;75.95;53.47;;;-0.90;99.90;;;;;;4994281;28;20026;-81
2022/01/14 10:25:20;;;;;;;79.85;56.85;;;-0.80;99.90;;;;;;4996730;28;20046;-80
2022/01/14 10:27:49;;;;;;;88.32;57.63;;;-0.60;99.90;;;;;;4999553;28;20041;-79
2022/01/14 10:30:21;;;;;;;75.70;55.70;;;-0.50;99.90;;;;;;5003994;28;20042;-79
2022/01/14 10:32:56;;;;;;;81.38;57.00;;;-0.60;99.90;;;;;;5000041;28;20487;-80
2022/01/14 10:35:25;;;;;;;74.90;59.30;;;-0.70;99.90;;;;;;4998392;28;20049;-80
2022/01/14 10:37:55;;;;;;;87.35;60.70;;;-0.70;99.90;;;;;;4997154;28;20042;-80
2022/01/14 10:40:28;;;;;;;75.20;53.58;;;-0.80;99.90;;;;;;4997708;28;20038;-81
2022/01/14 10:43:04;;;;;;;86.50;56.55;;;-0.80;99.90;;;;;;4997370;28;20038;-80
2022/01/14 10:45:31;;;;;;;79.47;53.60;;;-0.80;99.90;;;;;;4997827;28;20039;-80
2022/01/14 10:47:58;;;;;;;97.30;61.45;;;-0.70;99.90;;;;;;4998446;28;20038;-81
2022/01/14 10:50:36;;;;;;;87.18;55.33;;;-0.70;99.90;;;;;;4997777;28;20053;-81
2022/01/14 10:53:17;;;;;;;84.60;55.63;;;-0.60;99.90;;;;;;5000036;28;20038;-80
2022/01/14 10:55:52;;;;;;;85.75;57.30;;;-0.60;99.90;;;;;;5006711;28;20034;-80
2022/01/14 10:58:37;;;;;;;91.68;56.97;;;-0.40;99.90;;;;;;5009108;28;20039;-80
2022/01/14 11:01:13;;;;;;;81.20;57.67;;;-0.50;99.90;;;;;;5009850;28;20026;-80
2022/01/14 11:03:43;;;;;;;85.05;58.80;;;-0.50;99.90;;;;;;4994093;28;20042;-80
2022/01/14 11:06:33;;;;;;;91.18;59.55;;;-0.50;99.90;;;;;;4997906;28;20603;-80
2022/01/14 11:09:08;;;;;;;89.20;59.22;;;-0.50;99.90;;;;;;4997287;28;20026;-80
2022/01/14 11:11:38;;;;;;;93.10;59.97;;;-0.50;99.90;;;;;;4997667;28;20034;-79
2022/01/14 11:14:06;;;;;;;90.22;63.55;;;-0.30;99.90;;;;;;4997124;28;20472;-79
2022/01/14 11:16:33;;;;;;;97.97;63.42;;;-0.20;99.90;;;;;;4997247;28;20038;-80
2022/01/14 11:19:01;;;;;;;92.68;59.72;;;-0.30;99.90;;;;;;4996217;28;20042;-81
2022/01/14 11:24:23;;;;;;;87.00;63.60;;;-0.30;99.90;;;;;;4996555;28;20046;-80
2022/01/14 11:27:08;;;;;;;89.20;63.75;;;0.00;99.90;;;;;;4996976;28;20034;-80
2022/01/14 11:29:42;;;;;;;87.43;61.63;;;0.00;99.90;;;;;;4996615;28;20034;-80
2022/01/14 11:32:09;;;;;;;96.35;63.50;;;0.00;99.90;;;;;;4994907;28;20057;-80
2022/01/14 11:34:40;;;;;;;95.20;60.90;;;0.10;99.90;;;;;;4996445;28;20038;-80
2022/01/14 11:37:17;;;;;;;83.25;59.58;;;0.00;99.90;;;;;;4997178;28;20034;-81
2022/01/14 11:40:05;;;;;;;85.13;60.50;;;0.00;99.90;;;;;;4996831;28;20521;-80
2022/01/14 11:42:59;;;;;;;98.38;71.78;;;0.20;99.90;;;;;;4996963;28;20038;-80
2022/01/14 11:45:45;;;;;;;86.00;63.60;;;0.20;99.90;;;;;;4997050;28;20042;-80
2022/01/14 11:48:34;;;;;;;96.53;68.40;;;0.00;99.90;;;;;;4983070;28;20050;-80
2022/01/14 11:51:02;;;;;;;88.88;61.63;;;0.00;99.90;;;;;;4996700;28;20037;-80
2022/01/14 11:53:33;;;;;;;83.35;63.17;;;0.10;99.90;;;;;;4996756;28;20065;-80
2022/01/14 11:55:59;;;;;;;95.43;63.83;;;0.10;99.90;;;;;;4995846;28;20042;-81
2022/01/14 11:58:25;;;;;;;95.50;63.97;;;0.20;99.90;;;;;;4996549;28;20034;-80
2022/01/14 12:00:52;;;;;;;98.45;65.40;;;0.30;99.90;;;;;;4996153;28;20026;-79
2022/01/14 12:03:21;;;;;;;84.00;60.75;;;0.30;99.90;;;;;;4996077;28;20387;-80
2022/01/14 12:05:53;;;;;;;99.05;68.50;;;0.40;99.90;;;;;;4995429;28;20400;-80
2022/01/14 12:08:27;;;;;;;102.50;65.28;;;0.40;99.90;;;;;;4995576;28;20045;-81
2022/01/14 12:10:57;;;;;;;94.80;63.85;;;0.60;99.90;;;;;;5000514;28;20034;-84
2022/01/14 12:13:50;;;;;;;93.40;62.33;;;0.50;99.90;;;;;;4998125;28;20030;-80
2022/01/14 12:16:20;;;;;;;88.35;63.28;;;0.50;99.90;;;;;;4995219;28;20364;-80
2022/01/14 12:18:49;;;;;;;102.32;71.43;;;0.50;99.90;;;;;;4995612;28;20030;-80
2022/01/14 12:21:16;;;;;;;87.32;67.18;;;0.40;99.90;;;;;;4994051;28;20045;-80
2022/01/14 12:23:43;;;;;;;97.10;69.30;;;0.50;99.90;;;;;;4995772;28;20039;-80
2022/01/14 12:26:18;;;;;;;101.45;68.38;;;0.60;99.90;;;;;;4995312;28;20456;-79
2022/01/14 12:29:05;;;;;;;105.40;70.90;;;0.80;99.90;;;;;;4996684;28;20471;-80
2022/01/14 12:32:01;;;;;;;97.28;66.57;;;0.90;99.90;;;;;;4996089;28;20026;-80
2022/01/14 12:34:27;;;;;;;99.57;66.03;;;0.90;99.90;;;;;;4995562;28;20034;-80
2022/01/14 12:36:54;;;;;;;85.78;64.45;;;0.70;99.90;;;;;;4995553;28;20038;-80
2022/01/14 12:39:20;;;;;;;96.22;63.78;;;0.80;99.90;;;;;;4998165;28;20030;-80
2022/01/14 12:41:50;;;;;;;94.65;64.28;;;0.80;99.90;;;;;;4995994;28;20035;-80
2022/01/14 12:44:16;;;;;;;104.25;66.32;;;0.50;99.90;;;;;;4993488;28;20034;-80
2022/01/14 12:46:53;;;;;;;95.68;65.95;;;0.50;99.90;;;;;;4995356;28;20134;-81
2022/01/14 12:49:30;;;;;;;91.07;65.38;;;0.50;99.90;;;;;;4994632;28;20034;-80
2022/01/14 12:52:07;;;;;;;100.22;67.65;;;0.50;99.90;;;;;;4994853;28;20034;-82
2022/01/14 12:54:42;;;;;;;115.90;69.93;;;0.50;99.90;;;;;;4995060;28;20041;-80
2022/01/14 12:57:08;;;;;;;101.80;69.50;;;0.50;99.90;;;;;;4995362;28;20029;-81
2022/01/14 12:59:38;;;;;;;110.25;75.78;;;0.60;99.90;;;;;;4996623;28;20499;-81
2022/01/14 13:02:05;;;;;;;108.30;71.35;;;0.80;99.90;;;;;;4993259;28;20109;-81